sensor_id;sensor_type;location;lat;lon;timestamp;temperature;humidity
13521;DHT22;6832;51.186;3.236;2023-03-20T00:01:55;15.90;57.50
13521;DHT22;6832;51.186;3.236;2023-03-20T00:04:23;15.90;57.50
13521;DHT22;6832;51.186;3.236;2023-03-20T00:06:54;15.90;57.50
13521;DHT22;6832;51.186;3.236;2023-03-20T00:09:22;15.90;57.50
13521;DHT22;6832;51.186;3.236;2023-03-20T00:11:51;15.90;57.50
13521;DHT22;6832;51.186;3.236;2023-03-20T00:14:20;15.80;57.50
13521;DHT22;6832;51.186;3.236;2023-03-20T00:16:50;15.80;57.40
13521;DHT22;6832;51.186;3.236;2023-03-20T00:19:19;15.80;57.40
13521;DHT22;6832;51.186;3.236;2023-03-20T00:21:50;15.80;57.40
13521;DHT22;6832;51.186;3.236;2023-03-20T00:24:34;15.80;57.40
13521;DHT22;6832;51.186;3.236;2023-03-20T00:27:14;15.80;57.40
13521;DHT22;6832;51.186;3.236;2023-03-20T00:29:42;15.90;57.50
13521;DHT22;6832;51.186;3.236;2023-03-20T00:32:10;15.80;57.40
13521;DHT22;6832;51.186;3.236;2023-03-20T00:34:40;15.70;57.40
13521;DHT22;6832;51.186;3.236;2023-03-20T00:37:24;15.70;57.40
13521;DHT22;6832;51.186;3.236;2023-03-20T00:39:53;15.70;57.40
13521;DHT22;6832;51.186;3.236;2023-03-20T00:42:21;15.80;57.40
13521;DHT22;6832;51.186;3.236;2023-03-20T00:44:51;15.70;57.30
13521;DHT22;6832;51.186;3.236;2023-03-20T00:47:20;15.80;57.50
13521;DHT22;6832;51.186;3.236;2023-03-20T00:49:50;15.70;57.40
13521;DHT22;6832;51.186;3.236;2023-03-20T00:52:18;15.80;57.50
13521;DHT22;6832;51.186;3.236;2023-03-20T00:57:36;15.70;57.40
13521;DHT22;6832;51.186;3.236;2023-03-20T01:00:06;15.70;57.40
13521;DHT22;6832;51.186;3.236;2023-03-20T01:02:33;15.70;57.40
13521;DHT22;6832;51.186;3.236;2023-03-20T01:05:01;15.70;57.40
13521;DHT22;6832;51.186;3.236;2023-03-20T01:07:30;15.70;57.40
13521;DHT22;6832;51.186;3.236;2023-03-20T01:09:58;15.70;57.30
13521;DHT22;6832;51.186;3.236;2023-03-20T01:12:28;15.70;57.40
13521;DHT22;6832;51.186;3.236;2023-03-20T01:14:57;15.70;57.40
13521;DHT22;6832;51.186;3.236;2023-03-20T01:17:26;15.70;57.40
13521;DHT22;6832;51.186;3.236;2023-03-20T01:19:53;15.60;57.30
13521;DHT22;6832;51.186;3.236;2023-03-20T01:22:21;15.60;57.30
13521;DHT22;6832;51.186;3.236;2023-03-20T01:24:49;15.60;57.30
13521;DHT22;6832;51.186;3.236;2023-03-20T01:27:18;15.60;57.30
13521;DHT22;6832;51.186;3.236;2023-03-20T01:29:46;15.60;57.30
13521;DHT22;6832;51.186;3.236;2023-03-20T01:32:15;15.60;57.30
13521;DHT22;6832;51.186;3.236;2023-03-20T01:34:44;15.60;57.30
13521;DHT22;6832;51.186;3.236;2023-03-20T01:37:16;15.50;57.20
13521;DHT22;6832;51.186;3.236;2023-03-20T01:39:44;15.60;57.30
13521;DHT22;6832;51.186;3.236;2023-03-20T01:42:15;15.60;57.30
13521;DHT22;6832;51.186;3.236;2023-03-20T01:44:46;15.60;57.90
13521;DHT22;6832;51.186;3.236;2023-03-20T01:47:17;15.60;57.30
13521;DHT22;6832;51.186;3.236;2023-03-20T01:50:17;15.50;57.30
13521;DHT22;6832;51.186;3.236;2023-03-20T01:52:48;15.60;57.30
13521;DHT22;6832;51.186;3.236;2023-03-20T01:55:16;15.50;57.30
13521;DHT22;6832;51.186;3.236;2023-03-20T01:57:45;15.50;57.30
13521;DHT22;6832;51.186;3.236;2023-03-20T02:00:15;15.50;57.20
13521;DHT22;6832;51.186;3.236;2023-03-20T02:02:44;15.50;57.30
13521;DHT22;6832;51.186;3.236;2023-03-20T02:05:13;15.60;57.30
13521;DHT22;6832;51.186;3.236;2023-03-20T02:07:45;15.50;57.30
13521;DHT22;6832;51.186;3.236;2023-03-20T02:10:18;15.50;57.20
13521;DHT22;6832;51.186;3.236;2023-03-20T02:12:46;15.50;57.20
13521;DHT22;6832;51.186;3.236;2023-03-20T02:15:16;15.50;57.30
13521;DHT22;6832;51.186;3.236;2023-03-20T02:17:43;15.40;57.10
13521;DHT22;6832;51.186;3.236;2023-03-20T02:20:19;15.50;57.30
13521;DHT22;6832;51.186;3.236;2023-03-20T02:29:38;15.40;57.20
13521;DHT22;6832;51.186;3.236;2023-03-20T02:38:56;15.50;57.30
13521;DHT22;6832;51.186;3.236;2023-03-20T02:41:29;15.40;57.20
13521;DHT22;6832;51.186;3.236;2023-03-20T02:44:04;15.40;57.20
13521;DHT22;6832;51.186;3.236;2023-03-20T02:46:40;15.40;57.20
13521;DHT22;6832;51.186;3.236;2023-03-20T02:49:21;15.40;57.20
13521;DHT22;6832;51.186;3.236;2023-03-20T02:51:57;15.40;57.20
13521;DHT22;6832;51.186;3.236;2023-03-20T02:54:38;15.30;57.10
13521;DHT22;6832;51.186;3.236;2023-03-20T02:57:11;15.30;57.10
13521;DHT22;6832;51.186;3.236;2023-03-20T02:59:46;15.40;57.20
13521;DHT22;6832;51.186;3.236;2023-03-20T03:02:16;15.40;57.20
13521;DHT22;6832;51.186;3.236;2023-03-20T03:04:48;15.40;57.20
13521;DHT22;6832;51.186;3.236;2023-03-20T03:07:19;15.30;57.10
13521;DHT22;6832;51.186;3.236;2023-03-20T03:09:52;15.30;57.10
13521;DHT22;6832;51.186;3.236;2023-03-20T03:12:27;15.40;57.20
13521;DHT22;6832;51.186;3.236;2023-03-20T03:15:00;15.30;57.20
13521;DHT22;6832;51.186;3.236;2023-03-20T03:17:31;15.30;57.10
13521;DHT22;6832;51.186;3.236;2023-03-20T03:20:06;15.30;57.10
13521;DHT22;6832;51.186;3.236;2023-03-20T03:22:36;15.30;57.20
13521;DHT22;6832;51.186;3.236;2023-03-20T03:25:08;15.30;57.10
13521;DHT22;6832;51.186;3.236;2023-03-20T03:27:39;15.30;57.20
13521;DHT22;6832;51.186;3.236;2023-03-20T03:30:12;15.30;57.20
13521;DHT22;6832;51.186;3.236;2023-03-20T03:32:46;15.30;57.20
13521;DHT22;6832;51.186;3.236;2023-03-20T03:35:19;15.30;57.20
13521;DHT22;6832;51.186;3.236;2023-03-20T03:37:54;15.30;57.20
13521;DHT22;6832;51.186;3.236;2023-03-20T03:40:31;15.30;57.20
13521;DHT22;6832;51.186;3.236;2023-03-20T03:43:02;15.30;57.20
13521;DHT22;6832;51.186;3.236;2023-03-20T03:45:37;15.30;57.20
13521;DHT22;6832;51.186;3.236;2023-03-20T03:48:07;15.20;57.10
13521;DHT22;6832;51.186;3.236;2023-03-20T03:50:43;15.30;57.20
13521;DHT22;6832;51.186;3.236;2023-03-20T03:53:14;15.20;57.10
13521;DHT22;6832;51.186;3.236;2023-03-20T03:55:48;15.30;57.20
13521;DHT22;6832;51.186;3.236;2023-03-20T03:58:18;15.20;57.20
13521;DHT22;6832;51.186;3.236;2023-03-20T04:00:49;15.20;57.20
13521;DHT22;6832;51.186;3.236;2023-03-20T04:03:23;15.20;57.10
13521;DHT22;6832;51.186;3.236;2023-03-20T04:05:54;15.20;57.20
13521;DHT22;6832;51.186;3.236;2023-03-20T04:08:22;15.30;57.20
13521;DHT22;6832;51.186;3.236;2023-03-20T04:10:50;15.20;57.20
13521;DHT22;6832;51.186;3.236;2023-03-20T04:13:17;15.20;57.10
13521;DHT22;6832;51.186;3.236;2023-03-20T04:15:45;15.20;57.10
13521;DHT22;6832;51.186;3.236;2023-03-20T04:18:14;15.20;57.10
13521;DHT22;6832;51.186;3.236;2023-03-20T04:20:44;15.20;57.10
13521;DHT22;6832;51.186;3.236;2023-03-20T04:23:11;15.20;57.10
13521;DHT22;6832;51.186;3.236;2023-03-20T04:25:40;15.20;57.10
13521;DHT22;6832;51.186;3.236;2023-03-20T04:28:08;15.20;57.20
13521;DHT22;6832;51.186;3.236;2023-03-20T04:30:36;15.20;57.10
13521;DHT22;6832;51.186;3.236;2023-03-20T04:33:05;15.20;57.10
13521;DHT22;6832;51.186;3.236;2023-03-20T04:35:32;15.20;57.10
13521;DHT22;6832;51.186;3.236;2023-03-20T04:37:59;15.20;57.10
13521;DHT22;6832;51.186;3.236;2023-03-20T04:40:26;15.20;57.10
13521;DHT22;6832;51.186;3.236;2023-03-20T04:42:53;15.20;57.20
13521;DHT22;6832;51.186;3.236;2023-03-20T04:45:21;15.20;57.10
13521;DHT22;6832;51.186;3.236;2023-03-20T04:47:48;15.20;57.10
13521;DHT22;6832;51.186;3.236;2023-03-20T04:50:15;15.20;57.20
13521;DHT22;6832;51.186;3.236;2023-03-20T04:52:42;15.20;57.20
13521;DHT22;6832;51.186;3.236;2023-03-20T04:55:09;15.20;57.20
13521;DHT22;6832;51.186;3.236;2023-03-20T04:57:36;15.10;57.10
13521;DHT22;6832;51.186;3.236;2023-03-20T05:00:04;15.10;57.10
13521;DHT22;6832;51.186;3.236;2023-03-20T05:02:33;15.20;57.20
13521;DHT22;6832;51.186;3.236;2023-03-20T05:05:00;15.10;57.10
13521;DHT22;6832;51.186;3.236;2023-03-20T05:07:27;15.20;57.10
13521;DHT22;6832;51.186;3.236;2023-03-20T05:09:54;15.20;57.20
13521;DHT22;6832;51.186;3.236;2023-03-20T05:12:21;15.20;57.20
13521;DHT22;6832;51.186;3.236;2023-03-20T05:14:54;15.10;57.10
13521;DHT22;6832;51.186;3.236;2023-03-20T05:17:21;15.20;57.20
13521;DHT22;6832;51.186;3.236;2023-03-20T05:19:50;15.10;57.10
13521;DHT22;6832;51.186;3.236;2023-03-20T05:22:18;15.20;57.20
13521;DHT22;6832;51.186;3.236;2023-03-20T05:24:45;15.10;57.10
13521;DHT22;6832;51.186;3.236;2023-03-20T05:27:12;15.20;57.10
13521;DHT22;6832;51.186;3.236;2023-03-20T05:29:39;15.20;57.10
13521;DHT22;6832;51.186;3.236;2023-03-20T05:32:06;15.20;57.20
13521;DHT22;6832;51.186;3.236;2023-03-20T05:34:33;15.10;57.10
13521;DHT22;6832;51.186;3.236;2023-03-20T05:37:16;15.30;57.30
13521;DHT22;6832;51.186;3.236;2023-03-20T05:39:50;15.20;57.20
13521;DHT22;6832;51.186;3.236;2023-03-20T05:42:20;15.20;57.10
13521;DHT22;6832;51.186;3.236;2023-03-20T05:44:47;15.20;57.20
13521;DHT22;6832;51.186;3.236;2023-03-20T05:47:14;15.20;57.10
13521;DHT22;6832;51.186;3.236;2023-03-20T05:49:43;15.20;57.20
13521;DHT22;6832;51.186;3.236;2023-03-20T05:52:10;15.10;57.10
13521;DHT22;6832;51.186;3.236;2023-03-20T05:54:39;15.10;57.10
13521;DHT22;6832;51.186;3.236;2023-03-20T05:57:06;15.10;57.10
13521;DHT22;6832;51.186;3.236;2023-03-20T05:59:33;15.10;57.10
13521;DHT22;6832;51.186;3.236;2023-03-20T06:02:00;15.10;57.10
13521;DHT22;6832;51.186;3.236;2023-03-20T06:04:27;15.20;57.20
13521;DHT22;6832;51.186;3.236;2023-03-20T06:06:54;15.20;57.20
13521;DHT22;6832;51.186;3.236;2023-03-20T06:09:21;15.20;57.20
13521;DHT22;6832;51.186;3.236;2023-03-20T06:11:50;15.10;57.10
13521;DHT22;6832;51.186;3.236;2023-03-20T06:14:17;15.10;57.10
13521;DHT22;6832;51.186;3.236;2023-03-20T06:16:44;15.20;57.80
13521;DHT22;6832;51.186;3.236;2023-03-20T06:19:11;15.10;57.10
13521;DHT22;6832;51.186;3.236;2023-03-20T06:21:38;15.10;57.10
13521;DHT22;6832;51.186;3.236;2023-03-20T06:24:06;15.10;57.10
13521;DHT22;6832;51.186;3.236;2023-03-20T06:26:33;15.20;57.20
13521;DHT22;6832;51.186;3.236;2023-03-20T06:29:01;15.10;57.10
13521;DHT22;6832;51.186;3.236;2023-03-20T06:31:28;15.10;57.10
13521;DHT22;6832;51.186;3.236;2023-03-20T06:33:55;15.10;57.10
13521;DHT22;6832;51.186;3.236;2023-03-20T06:36:23;15.10;57.10
13521;DHT22;6832;51.186;3.236;2023-03-20T06:38:50;15.10;57.20
13521;DHT22;6832;51.186;3.236;2023-03-20T06:41:17;15.20;57.20
13521;DHT22;6832;51.186;3.236;2023-03-20T06:43:44;15.10;57.10
13521;DHT22;6832;51.186;3.236;2023-03-20T06:46:12;15.10;57.10
13521;DHT22;6832;51.186;3.236;2023-03-20T06:48:39;15.10;57.20
13521;DHT22;6832;51.186;3.236;2023-03-20T06:51:06;15.10;57.10
13521;DHT22;6832;51.186;3.236;2023-03-20T06:53:33;15.10;57.10
13521;DHT22;6832;51.186;3.236;2023-03-20T06:56:01;15.00;57.10
13521;DHT22;6832;51.186;3.236;2023-03-20T06:58:29;15.10;57.10
13521;DHT22;6832;51.186;3.236;2023-03-20T07:00:59;15.10;57.20
13521;DHT22;6832;51.186;3.236;2023-03-20T07:03:27;15.10;57.10
13521;DHT22;6832;51.186;3.236;2023-03-20T07:05:54;15.10;57.20
13521;DHT22;6832;51.186;3.236;2023-03-20T07:08:21;15.10;57.20
13521;DHT22;6832;51.186;3.236;2023-03-20T07:10:48;15.10;57.20
13521;DHT22;6832;51.186;3.236;2023-03-20T07:13:16;15.10;57.20
13521;DHT22;6832;51.186;3.236;2023-03-20T07:15:43;15.10;57.20
13521;DHT22;6832;51.186;3.236;2023-03-20T07:18:10;15.10;57.20
13521;DHT22;6832;51.186;3.236;2023-03-20T07:20:38;15.10;57.30
13521;DHT22;6832;51.186;3.236;2023-03-20T07:23:05;15.10;57.20
13521;DHT22;6832;51.186;3.236;2023-03-20T07:25:41;15.10;57.20
13521;DHT22;6832;51.186;3.236;2023-03-20T07:28:08;15.10;57.20
13521;DHT22;6832;51.186;3.236;2023-03-20T07:30:35;15.10;57.20
13521;DHT22;6832;51.186;3.236;2023-03-20T07:33:02;15.10;57.20
13521;DHT22;6832;51.186;3.236;2023-03-20T07:35:30;15.10;57.20
13521;DHT22;6832;51.186;3.236;2023-03-20T07:37:59;15.10;57.20
13521;DHT22;6832;51.186;3.236;2023-03-20T07:40:26;15.10;57.20
13521;DHT22;6832;51.186;3.236;2023-03-20T07:42:53;15.00;57.20
13521;DHT22;6832;51.186;3.236;2023-03-20T07:45:21;15.10;57.20
13521;DHT22;6832;51.186;3.236;2023-03-20T07:47:48;15.10;57.20
13521;DHT22;6832;51.186;3.236;2023-03-20T07:50:18;15.10;57.20
13521;DHT22;6832;51.186;3.236;2023-03-20T07:52:46;15.10;57.20
13521;DHT22;6832;51.186;3.236;2023-03-20T07:55:14;15.10;57.30
13521;DHT22;6832;51.186;3.236;2023-03-20T07:57:42;15.10;57.30
13521;DHT22;6832;51.186;3.236;2023-03-20T08:00:10;15.10;57.30
13521;DHT22;6832;51.186;3.236;2023-03-20T08:02:37;15.10;57.30
13521;DHT22;6832;51.186;3.236;2023-03-20T08:05:05;15.10;57.30
13521;DHT22;6832;51.186;3.236;2023-03-20T08:07:39;15.10;57.30
13521;DHT22;6832;51.186;3.236;2023-03-20T08:10:07;15.10;57.30
13521;DHT22;6832;51.186;3.236;2023-03-20T08:12:36;15.10;57.30
13521;DHT22;6832;51.186;3.236;2023-03-20T08:15:03;15.10;57.30
13521;DHT22;6832;51.186;3.236;2023-03-20T08:17:31;15.10;57.30
13521;DHT22;6832;51.186;3.236;2023-03-20T08:19:58;15.10;57.30
13521;DHT22;6832;51.186;3.236;2023-03-20T08:22:25;15.10;57.30
13521;DHT22;6832;51.186;3.236;2023-03-20T08:24:52;15.10;57.30
13521;DHT22;6832;51.186;3.236;2023-03-20T08:27:19;15.10;57.30
13521;DHT22;6832;51.186;3.236;2023-03-20T08:29:47;15.20;57.40
13521;DHT22;6832;51.186;3.236;2023-03-20T08:32:14;15.20;57.40
13521;DHT22;6832;51.186;3.236;2023-03-20T08:34:41;15.10;57.30
13521;DHT22;6832;51.186;3.236;2023-03-20T08:37:09;15.20;57.40
13521;DHT22;6832;51.186;3.236;2023-03-20T08:39:37;15.20;57.40
13521;DHT22;6832;51.186;3.236;2023-03-20T08:42:04;15.20;57.50
13521;DHT22;6832;51.186;3.236;2023-03-20T08:44:48;15.20;57.50
13521;DHT22;6832;51.186;3.236;2023-03-20T08:47:15;15.20;57.50
13521;DHT22;6832;51.186;3.236;2023-03-20T08:49:42;15.20;57.50
13521;DHT22;6832;51.186;3.236;2023-03-20T08:52:10;15.20;57.50
13521;DHT22;6832;51.186;3.236;2023-03-20T08:54:40;15.10;57.40
13521;DHT22;6832;51.186;3.236;2023-03-20T08:57:07;15.20;57.50
13521;DHT22;6832;51.186;3.236;2023-03-20T08:59:34;15.20;57.50
13521;DHT22;6832;51.186;3.236;2023-03-20T09:02:02;15.20;57.50
13521;DHT22;6832;51.186;3.236;2023-03-20T09:04:30;15.20;57.50
13521;DHT22;6832;51.186;3.236;2023-03-20T09:06:57;15.20;57.50
13521;DHT22;6832;51.186;3.236;2023-03-20T09:09:25;15.20;57.50
13521;DHT22;6832;51.186;3.236;2023-03-20T09:12:01;15.20;57.50
13521;DHT22;6832;51.186;3.236;2023-03-20T09:14:43;15.20;57.50
13521;DHT22;6832;51.186;3.236;2023-03-20T09:17:11;15.20;57.50
13521;DHT22;6832;51.186;3.236;2023-03-20T09:19:38;15.20;57.50
13521;DHT22;6832;51.186;3.236;2023-03-20T09:22:09;15.30;57.60
13521;DHT22;6832;51.186;3.236;2023-03-20T09:24:38;15.20;57.50
13521;DHT22;6832;51.186;3.236;2023-03-20T09:27:05;15.20;57.50
13521;DHT22;6832;51.186;3.236;2023-03-20T09:29:32;15.30;57.60
13521;DHT22;6832;51.186;3.236;2023-03-20T09:31:59;15.30;57.60
13521;DHT22;6832;51.186;3.236;2023-03-20T09:34:28;15.30;57.60
13521;DHT22;6832;51.186;3.236;2023-03-20T09:36:55;15.30;57.60
13521;DHT22;6832;51.186;3.236;2023-03-20T09:39:22;15.30;57.60
13521;DHT22;6832;51.186;3.236;2023-03-20T09:41:50;15.30;57.70
13521;DHT22;6832;51.186;3.236;2023-03-20T09:44:26;15.20;57.60
13521;DHT22;6832;51.186;3.236;2023-03-20T09:47:04;15.30;57.70
13521;DHT22;6832;51.186;3.236;2023-03-20T09:49:44;15.30;57.70
13521;DHT22;6832;51.186;3.236;2023-03-20T09:52:19;15.30;57.70
13521;DHT22;6832;51.186;3.236;2023-03-20T09:54:48;15.30;57.70
13521;DHT22;6832;51.186;3.236;2023-03-20T09:57:20;15.30;57.70
13521;DHT22;6832;51.186;3.236;2023-03-20T09:59:49;15.30;57.70
13521;DHT22;6832;51.186;3.236;2023-03-20T10:02:20;15.30;57.70
13521;DHT22;6832;51.186;3.236;2023-03-20T10:04:53;15.30;57.70
13521;DHT22;6832;51.186;3.236;2023-03-20T10:07:21;15.50;57.90
13521;DHT22;6832;51.186;3.236;2023-03-20T10:09:48;15.40;57.70
13521;DHT22;6832;51.186;3.236;2023-03-20T10:12:44;15.40;57.70
13521;DHT22;6832;51.186;3.236;2023-03-20T10:15:18;15.30;57.70
13521;DHT22;6832;51.186;3.236;2023-03-20T10:17:52;15.30;57.70
13521;DHT22;6832;51.186;3.236;2023-03-20T10:20:30;15.40;57.80
13521;DHT22;6832;51.186;3.236;2023-03-20T10:23:04;15.40;57.80
13521;DHT22;6832;51.186;3.236;2023-03-20T10:25:33;15.40;57.80
13521;DHT22;6832;51.186;3.236;2023-03-20T10:28:05;15.40;57.80
13521;DHT22;6832;51.186;3.236;2023-03-20T10:30:55;15.40;57.80
13521;DHT22;6832;51.186;3.236;2023-03-20T10:33:39;15.40;57.80
13521;DHT22;6832;51.186;3.236;2023-03-20T10:36:24;15.40;57.80
13521;DHT22;6832;51.186;3.236;2023-03-20T10:38:57;15.40;57.80
13521;DHT22;6832;51.186;3.236;2023-03-20T10:41:29;15.40;57.80
13521;DHT22;6832;51.186;3.236;2023-03-20T10:44:05;15.40;57.90
13521;DHT22;6832;51.186;3.236;2023-03-20T10:46:40;15.50;57.90
13521;DHT22;6832;51.186;3.236;2023-03-20T10:49:17;15.50;58.00
13521;DHT22;6832;51.186;3.236;2023-03-20T10:51:51;15.50;58.00
13521;DHT22;6832;51.186;3.236;2023-03-20T10:54:25;15.40;57.90
13521;DHT22;6832;51.186;3.236;2023-03-20T10:56:55;15.50;58.00
13521;DHT22;6832;51.186;3.236;2023-03-20T10:59:25;15.50;58.00
13521;DHT22;6832;51.186;3.236;2023-03-20T11:01:52;15.50;58.00
13521;DHT22;6832;51.186;3.236;2023-03-20T11:04:25;15.50;58.00
13521;DHT22;6832;51.186;3.236;2023-03-20T11:06:59;15.50;58.00
13521;DHT22;6832;51.186;3.236;2023-03-20T11:09:28;15.50;58.00
13521;DHT22;6832;51.186;3.236;2023-03-20T11:11:58;15.60;58.00
13521;DHT22;6832;51.186;3.236;2023-03-20T11:14:31;15.60;58.10
13521;DHT22;6832;51.186;3.236;2023-03-20T11:17:00;15.50;58.00
13521;DHT22;6832;51.186;3.236;2023-03-20T11:19:32;15.60;58.10
13521;DHT22;6832;51.186;3.236;2023-03-20T11:22:06;15.60;58.10
13521;DHT22;6832;51.186;3.236;2023-03-20T11:24:36;15.50;58.00
13521;DHT22;6832;51.186;3.236;2023-03-20T11:27:07;15.60;58.60
13521;DHT22;6832;51.186;3.236;2023-03-20T11:29:35;15.60;58.00
13521;DHT22;6832;51.186;3.236;2023-03-20T11:32:05;15.70;58.10
13521;DHT22;6832;51.186;3.236;2023-03-20T11:34:36;15.60;58.00
13521;DHT22;6832;51.186;3.236;2023-03-20T11:37:21;15.60;58.00
13521;DHT22;6832;51.186;3.236;2023-03-20T11:39:59;15.60;58.10
13521;DHT22;6832;51.186;3.236;2023-03-20T11:42:28;15.60;58.00
13521;DHT22;6832;51.186;3.236;2023-03-20T11:45:00;15.70;58.10
13521;DHT22;6832;51.186;3.236;2023-03-20T11:47:31;15.70;58.10
13521;DHT22;6832;51.186;3.236;2023-03-20T11:50:00;15.70;58.10
13521;DHT22;6832;51.186;3.236;2023-03-20T11:52:31;15.70;58.10
13521;DHT22;6832;51.186;3.236;2023-03-20T11:55:00;15.70;58.10
13521;DHT22;6832;51.186;3.236;2023-03-20T11:57:38;15.70;58.10
13521;DHT22;6832;51.186;3.236;2023-03-20T12:00:17;15.70;58.10
13521;DHT22;6832;51.186;3.236;2023-03-20T12:02:48;15.70;58.10
13521;DHT22;6832;51.186;3.236;2023-03-20T12:05:27;15.70;58.10
13521;DHT22;6832;51.186;3.236;2023-03-20T12:07:59;15.80;58.20
13521;DHT22;6832;51.186;3.236;2023-03-20T12:10:30;15.80;58.20
13521;DHT22;6832;51.186;3.236;2023-03-20T12:13:00;15.80;58.20
13521;DHT22;6832;51.186;3.236;2023-03-20T12:15:31;15.80;58.20
13521;DHT22;6832;51.186;3.236;2023-03-20T12:18:01;15.90;58.30
13521;DHT22;6832;51.186;3.236;2023-03-20T12:20:32;15.90;58.20
13521;DHT22;6832;51.186;3.236;2023-03-20T12:23:11;15.90;58.20
13521;DHT22;6832;51.186;3.236;2023-03-20T12:25:43;15.70;58.10
13521;DHT22;6832;51.186;3.236;2023-03-20T12:28:18;15.90;58.30
13521;DHT22;6832;51.186;3.236;2023-03-20T12:30:56;15.90;58.30
13521;DHT22;6832;51.186;3.236;2023-03-20T12:33:33;15.90;58.30
13521;DHT22;6832;51.186;3.236;2023-03-20T12:36:14;15.90;58.30
13521;DHT22;6832;51.186;3.236;2023-03-20T12:39:11;15.90;58.20
13521;DHT22;6832;51.186;3.236;2023-03-20T12:41:48;15.90;58.20
13521;DHT22;6832;51.186;3.236;2023-03-20T12:44:37;16.00;58.30
13521;DHT22;6832;51.186;3.236;2023-03-20T12:47:17;16.00;58.30
13521;DHT22;6832;51.186;3.236;2023-03-20T12:49:56;16.00;58.30
13521;DHT22;6832;51.186;3.236;2023-03-20T12:52:34;16.00;58.30
13521;DHT22;6832;51.186;3.236;2023-03-20T12:58:26;16.10;58.40
13521;DHT22;6832;51.186;3.236;2023-03-20T13:01:01;16.00;58.30
13521;DHT22;6832;51.186;3.236;2023-03-20T13:06:28;16.10;58.40
13521;DHT22;6832;51.186;3.236;2023-03-20T13:09:17;16.10;58.40
13521;DHT22;6832;51.186;3.236;2023-03-20T13:11:55;16.10;59.00
13521;DHT22;6832;51.186;3.236;2023-03-20T13:14:32;16.10;58.40
13521;DHT22;6832;51.186;3.236;2023-03-20T13:17:08;16.10;58.40
13521;DHT22;6832;51.186;3.236;2023-03-20T13:19:42;16.10;58.40
13521;DHT22;6832;51.186;3.236;2023-03-20T13:22:18;16.10;58.40
13521;DHT22;6832;51.186;3.236;2023-03-20T13:24:48;16.10;58.30
13521;DHT22;6832;51.186;3.236;2023-03-20T13:27:29;16.10;58.40
13521;DHT22;6832;51.186;3.236;2023-03-20T13:30:03;16.10;58.40
13521;DHT22;6832;51.186;3.236;2023-03-20T13:32:45;16.20;58.40
13521;DHT22;6832;51.186;3.236;2023-03-20T13:35:23;16.20;58.50
13521;DHT22;6832;51.186;3.236;2023-03-20T13:37:55;16.20;58.40
13521;DHT22;6832;51.186;3.236;2023-03-20T13:40:27;16.20;58.40
13521;DHT22;6832;51.186;3.236;2023-03-20T13:42:58;16.20;58.40
13521;DHT22;6832;51.186;3.236;2023-03-20T13:45:32;16.20;58.50
13521;DHT22;6832;51.186;3.236;2023-03-20T13:48:08;16.20;58.40
13521;DHT22;6832;51.186;3.236;2023-03-20T13:50:44;16.30;58.50
13521;DHT22;6832;51.186;3.236;2023-03-20T13:53:23;16.30;58.50
13521;DHT22;6832;51.186;3.236;2023-03-20T13:55:55;16.30;58.50
13521;DHT22;6832;51.186;3.236;2023-03-20T13:58:48;16.30;58.50
13521;DHT22;6832;51.186;3.236;2023-03-20T14:01:24;16.30;58.60
13521;DHT22;6832;51.186;3.236;2023-03-20T14:03:54;16.30;58.50
13521;DHT22;6832;51.186;3.236;2023-03-20T14:06:51;16.30;58.50
13521;DHT22;6832;51.186;3.236;2023-03-20T14:09:26;16.30;58.60
13521;DHT22;6832;51.186;3.236;2023-03-20T14:11:55;16.30;58.50
13521;DHT22;6832;51.186;3.236;2023-03-20T14:14:29;16.30;58.50
13521;DHT22;6832;51.186;3.236;2023-03-20T14:17:14;16.40;58.60
13521;DHT22;6832;51.186;3.236;2023-03-20T14:19:42;16.40;59.30
13521;DHT22;6832;51.186;3.236;2023-03-20T14:22:17;16.40;58.60
13521;DHT22;6832;51.186;3.236;2023-03-20T14:24:51;16.40;58.70
13521;DHT22;6832;51.186;3.236;2023-03-20T14:27:21;16.40;58.70
13521;DHT22;6832;51.186;3.236;2023-03-20T14:29:51;16.40;58.60
13521;DHT22;6832;51.186;3.236;2023-03-20T14:32:33;16.40;58.70
13521;DHT22;6832;51.186;3.236;2023-03-20T14:35:21;16.40;58.70
13521;DHT22;6832;51.186;3.236;2023-03-20T14:38:19;16.40;58.70
13521;DHT22;6832;51.186;3.236;2023-03-20T14:40:53;16.50;58.80
13521;DHT22;6832;51.186;3.236;2023-03-20T14:43:40;16.50;58.70
13521;DHT22;6832;51.186;3.236;2023-03-20T14:46:19;16.50;58.70
13521;DHT22;6832;51.186;3.236;2023-03-20T14:48:53;16.50;58.80
13521;DHT22;6832;51.186;3.236;2023-03-20T14:51:29;16.40;58.70
13521;DHT22;6832;51.186;3.236;2023-03-20T14:54:24;16.50;58.80
13521;DHT22;6832;51.186;3.236;2023-03-20T14:56:52;16.50;58.80
13521;DHT22;6832;51.186;3.236;2023-03-20T14:59:22;16.50;58.70
13521;DHT22;6832;51.186;3.236;2023-03-20T15:01:56;16.50;58.80
13521;DHT22;6832;51.186;3.236;2023-03-20T15:04:30;16.60;58.90
13521;DHT22;6832;51.186;3.236;2023-03-20T15:07:01;16.60;58.90
13521;DHT22;6832;51.186;3.236;2023-03-20T15:09:31;16.60;58.90
13521;DHT22;6832;51.186;3.236;2023-03-20T15:12:00;16.60;58.90
13521;DHT22;6832;51.186;3.236;2023-03-20T15:14:38;16.60;58.90
13521;DHT22;6832;51.186;3.236;2023-03-20T15:17:16;16.60;59.00
13521;DHT22;6832;51.186;3.236;2023-03-20T15:19:43;16.70;59.10
13521;DHT22;6832;51.186;3.236;2023-03-20T15:22:15;16.70;58.90
13521;DHT22;6832;51.186;3.236;2023-03-20T15:24:50;16.70;59.00
13521;DHT22;6832;51.186;3.236;2023-03-20T15:27:18;16.70;59.00
13521;DHT22;6832;51.186;3.236;2023-03-20T15:29:52;16.70;58.90
13521;DHT22;6832;51.186;3.236;2023-03-20T15:32:21;16.70;59.00
13521;DHT22;6832;51.186;3.236;2023-03-20T15:34:49;16.70;59.00
13521;DHT22;6832;51.186;3.236;2023-03-20T15:37:20;16.70;59.00
13521;DHT22;6832;51.186;3.236;2023-03-20T15:39:50;16.70;58.90
13521;DHT22;6832;51.186;3.236;2023-03-20T15:42:22;16.80;59.00
13521;DHT22;6832;51.186;3.236;2023-03-20T15:44:51;16.80;59.00
13521;DHT22;6832;51.186;3.236;2023-03-20T15:47:22;16.80;59.00
13521;DHT22;6832;51.186;3.236;2023-03-20T15:49:51;16.80;59.00
13521;DHT22;6832;51.186;3.236;2023-03-20T15:52:26;16.80;59.00
13521;DHT22;6832;51.186;3.236;2023-03-20T15:54:56;16.80;59.00
13521;DHT22;6832;51.186;3.236;2023-03-20T15:57:25;16.80;59.00
13521;DHT22;6832;51.186;3.236;2023-03-20T15:59:56;16.80;59.00
13521;DHT22;6832;51.186;3.236;2023-03-20T16:02:25;16.90;59.00
13521;DHT22;6832;51.186;3.236;2023-03-20T16:04:54;16.80;59.00
13521;DHT22;6832;51.186;3.236;2023-03-20T16:07:26;16.90;59.00
13521;DHT22;6832;51.186;3.236;2023-03-20T16:09:54;16.90;59.00
13521;DHT22;6832;51.186;3.236;2023-03-20T16:12:26;16.90;59.00
13521;DHT22;6832;51.186;3.236;2023-03-20T16:14:53;16.90;59.10
13521;DHT22;6832;51.186;3.236;2023-03-20T16:17:25;16.90;59.00
13521;DHT22;6832;51.186;3.236;2023-03-20T16:19:53;16.90;59.00
13521;DHT22;6832;51.186;3.236;2023-03-20T16:22:23;16.80;58.90
13521;DHT22;6832;51.186;3.236;2023-03-20T16:24:53;16.90;59.00
13521;DHT22;6832;51.186;3.236;2023-03-20T16:27:25;16.90;59.00
13521;DHT22;6832;51.186;3.236;2023-03-20T16:29:53;16.90;59.00
13521;DHT22;6832;51.186;3.236;2023-03-20T16:32:32;17.00;59.10
13521;DHT22;6832;51.186;3.236;2023-03-20T16:35:03;17.00;59.10